Terminal Aerodrome Forecast
Issued by NWS Sterling, VA

Home | Current Version | Previous Version | Text Only | Print | Product List | Glossary On
Versions: 1 2 3 4 5 6 7 8 9 10 11 12 13 14 15 16 17 18 19 20 21
008
FTUS41 KLWX 191130
TAFBWI
TAF
KBWI 191130Z 1912/2018 28006KT P6SM BKN070
     FM191600 30009KT P6SM SCT100
     FM200500 32005KT P6SM FEW250
     FM201500 35009KT P6SM SCT200=

USA.gov is the U.S. government's official web portal to all federal, state and local government web resources and services.